createdAt,value
2022-07-31T00:00:24.206Z,100893.59
2022-07-31T00:02:51.760Z,100898.84
2022-07-31T00:05:19.230Z,100901.63
2022-07-31T00:07:46.694Z,100906.28
2022-07-31T00:10:14.196Z,100901.63
2022-07-31T00:12:41.697Z,100899.13
2022-07-31T00:15:15.625Z,100904.38
2022-07-31T00:17:43.320Z,100899.94
2022-07-31T00:20:15.174Z,100904.63
2022-07-31T00:22:46.385Z,100903.81
2022-07-31T00:25:14.506Z,100913.72
2022-07-31T00:27:44.735Z,100904.38
2022-07-31T00:30:13.473Z,100903.81
2022-07-31T00:32:41.950Z,100903.81
2022-07-31T00:35:10.530Z,100903.81
2022-07-31T00:37:40.332Z,100897.44
2022-07-31T00:40:10.666Z,100904.63
2022-07-31T00:42:41.284Z,100891.94
2022-07-31T00:45:09.536Z,100899.38
2022-07-31T00:47:37.005Z,100900.22
2022-07-31T00:50:07.486Z,100900.22
2022-07-31T00:52:34.997Z,100899.38
2022-07-31T00:55:02.395Z,100887.53
2022-07-31T00:57:29.997Z,100890.56
2022-07-31T00:59:57.436Z,100881.16
2022-07-31T01:02:27.706Z,100872.88
2022-07-31T01:04:55.178Z,100872.88
2022-07-31T01:07:23.267Z,100878.41
2022-07-31T01:09:50.646Z,100870.13
2022-07-31T01:12:28.122Z,100877.59
2022-07-31T01:14:58.115Z,100870.97
2022-07-31T01:17:25.602Z,100866.28
2022-07-31T01:19:53.485Z,100865.19
2022-07-31T01:22:53.315Z,100865.47
2022-07-31T01:26:19.552Z,100861.59
2022-07-31T01:29:06.555Z,100861.06
2022-07-31T01:31:53.782Z,100854.16
2022-07-31T01:34:27.078Z,100857.75
2022-07-31T01:37:23.830Z,100861.59
2022-07-31T01:39:56.670Z,100843.13
2022-07-31T01:42:24.334Z,100848.66
2022-07-31T01:44:55.016Z,100853.59
2022-07-31T01:47:24.269Z,100854.16
2022-07-31T01:49:51.883Z,100857.19
2022-07-31T01:52:22.783Z,100852.50
2022-07-31T01:54:53.272Z,100852.50
2022-07-31T01:57:22.633Z,100857.19
2022-07-31T01:59:54.819Z,100860.78
2022-07-31T02:02:40.549Z,100856.06
2022-07-31T02:05:10.429Z,100859.69
2022-07-31T02:07:40.305Z,100855.25
2022-07-31T02:10:10.127Z,100862.72
2022-07-31T02:12:37.755Z,100863.78
2022-07-31T02:15:07.368Z,100869.03
2022-07-31T02:17:36.174Z,100870.97
2022-07-31T02:20:27.907Z,100866.28
2022-07-31T02:22:58.310Z,100865.47
2022-07-31T02:25:26.881Z,100866.28
2022-07-31T02:27:58.758Z,100864.34
2022-07-31T02:30:27.788Z,100877.59
2022-07-31T02:33:09.239Z,100869.03
2022-07-31T02:35:37.648Z,100869.03
2022-07-31T02:38:21.681Z,100870.72
2022-07-31T02:40:54.489Z,100869.03
2022-07-31T02:43:22.059Z,100864.63
2022-07-31T02:45:49.590Z,100860.22
2022-07-31T02:48:17.199Z,100855.53
2022-07-31T02:50:48.544Z,100851.13
2022-07-31T02:53:16.506Z,100850.25
2022-07-31T02:55:45.087Z,100845.84
2022-07-31T02:58:12.987Z,100852.19
2022-07-31T03:00:40.556Z,100851.13
2022-07-31T03:03:10.727Z,100851.94
2022-07-31T03:05:38.422Z,100842.84
2022-07-31T03:08:05.947Z,100856.63
2022-07-31T03:10:37.520Z,100851.34
2022-07-31T03:13:07.496Z,100854.13
2022-07-31T03:15:34.932Z,100851.34
2022-07-31T03:18:02.351Z,100847.78
2022-07-31T03:20:41.795Z,100857.69
2022-07-31T03:23:12.043Z,100859.63
2022-07-31T03:25:49.318Z,100857.69
2022-07-31T03:28:20.350Z,100855.22
2022-07-31T03:30:50.287Z,100865.97
2022-07-31T03:33:17.957Z,100862.41
2022-07-31T03:35:46.161Z,100862.41
2022-07-31T03:38:39.165Z,100861.56
2022-07-31T03:41:03.306Z,100862.41
2022-07-31T03:43:46.787Z,100862.41
2022-07-31T03:46:16.614Z,100863.47
2022-07-31T03:48:44.171Z,100863.47
2022-07-31T03:51:11.769Z,100867.09
2022-07-31T03:53:39.571Z,100860.72
2022-07-31T03:56:09.379Z,100862.41
2022-07-31T03:58:37.985Z,100856.06
2022-07-31T04:01:10.397Z,100858.25
2022-07-31T04:03:39.914Z,100852.44
2022-07-31T04:06:31.339Z,100849.69
2022-07-31T04:09:01.607Z,100855.22
2022-07-31T04:11:43.350Z,100844.16
2022-07-31T04:14:11.434Z,100849.69
2022-07-31T04:16:39.108Z,100845.28
2022-07-31T04:19:06.677Z,100847.22
2022-07-31T04:21:34.211Z,100855.22
2022-07-31T04:24:01.795Z,100850.53
2022-07-31T04:26:49.410Z,100849.69
2022-07-31T04:29:17.146Z,100848.06
2022-07-31T04:31:44.636Z,100856.06
2022-07-31T04:34:16.071Z,100857.41
2022-07-31T04:36:44.436Z,100855.78
2022-07-31T04:39:12.368Z,100853.84
2022-07-31T04:41:40.419Z,100855.78
2022-07-31T04:44:07.923Z,100857.41
2022-07-31T04:46:51.957Z,100855.78
2022-07-31T04:49:19.707Z,100860.16
2022-07-31T04:51:48.116Z,100861.03
2022-07-31T04:54:15.560Z,100855.78
2022-07-31T04:56:43.171Z,100862.94
2022-07-31T04:59:12.209Z,100860.47
2022-07-31T05:01:42.373Z,100854.94
2022-07-31T05:04:10.962Z,100854.94
2022-07-31T05:06:40.076Z,100851.34
2022-07-31T05:09:15.023Z,100853.00
2022-07-31T05:11:47.265Z,100844.75
2022-07-31T05:14:16.792Z,100841.97
2022-07-31T05:16:44.777Z,100844.75
2022-07-31T05:19:13.690Z,100844.75
2022-07-31T05:21:53.999Z,100841.97
2022-07-31T05:24:32.635Z,100838.94
2022-07-31T05:27:07.334Z,100843.34
2022-07-31T05:29:34.836Z,100834.53
2022-07-31T05:32:02.678Z,100837.00
2022-07-31T05:34:32.806Z,100841.41
2022-07-31T05:37:01.921Z,100848.06
2022-07-31T05:39:31.553Z,100848.88
2022-07-31T05:42:17.534Z,100847.47
2022-07-31T05:44:59.985Z,100845.84
2022-07-31T05:47:40.674Z,100848.38
2022-07-31T05:50:10.251Z,100848.06
2022-07-31T05:52:38.537Z,100853.88
2022-07-31T05:55:35.557Z,100854.69
2022-07-31T05:58:21.539Z,100859.94
2022-07-31T06:00:49.616Z,100851.94
2022-07-31T06:03:24.538Z,100858.50
2022-07-31T06:06:00.694Z,100852.50
2022-07-31T06:08:29.118Z,100859.41
2022-07-31T06:10:58.352Z,100863.53
2022-07-31T06:13:26.884Z,100862.72
2022-07-31T06:15:56.153Z,100866.28
2022-07-31T06:18:23.905Z,100862.72
2022-07-31T06:20:51.518Z,100870.72
2022-07-31T06:23:23.032Z,100871.53
2022-07-31T06:26:05.291Z,100864.91
2022-07-31T06:28:47.511Z,100869.59
2022-07-31T06:31:19.620Z,100874.28
2022-07-31T06:33:50.883Z,100864.06
2022-07-31T06:36:24.143Z,100874.03
2022-07-31T06:38:59.255Z,100862.44
2022-07-31T06:41:46.943Z,100860.22
2022-07-31T06:44:34.972Z,100861.31
2022-07-31T06:47:32.145Z,100864.63
2022-07-31T06:50:10.483Z,100854.72
2022-07-31T06:52:47.535Z,100859.13
2022-07-31T06:55:15.093Z,100866.31
2022-07-31T06:57:43.651Z,100861.88
2022-07-31T07:00:19.660Z,100868.22
2022-07-31T07:02:49.955Z,100863.53
2022-07-31T07:05:18.027Z,100863.00
2022-07-31T07:07:48.147Z,100866.31
2022-07-31T07:10:15.797Z,100867.13
2022-07-31T07:13:16.998Z,100866.31
2022-07-31T07:15:44.463Z,100866.31
2022-07-31T07:18:12.598Z,100871.81
2022-07-31T07:20:52.015Z,100870.69
2022-07-31T07:23:19.823Z,100880.91
2022-07-31T07:26:03.431Z,100870.16
2022-07-31T07:28:31.773Z,100870.16
2022-07-31T07:31:03.759Z,100877.34
2022-07-31T07:33:40.227Z,100877.34
2022-07-31T07:36:23.974Z,100875.66
2022-07-31T07:39:02.411Z,100878.97
2022-07-31T07:41:31.351Z,100874.56
2022-07-31T07:44:01.815Z,100869.06
2022-07-31T07:46:30.517Z,100878.41
2022-07-31T07:49:02.181Z,100860.78
2022-07-31T07:51:59.080Z,100874.56
2022-07-31T07:54:40.562Z,100872.63
2022-07-31T07:57:26.549Z,100874.56
2022-07-31T08:00:07.767Z,100867.38
2022-07-31T08:03:47.234Z,100869.31
2022-07-31T08:05:33.267Z,100873.47
2022-07-31T08:08:00.754Z,100867.13
2022-07-31T08:10:46.805Z,100875.13
2022-07-31T08:13:22.293Z,100867.13
2022-07-31T08:16:08.296Z,100868.22
2022-07-31T08:18:42.551Z,100873.72
2022-07-31T08:21:12.586Z,100872.63
2022-07-31T08:23:40.011Z,100863.81
2022-07-31T08:26:08.641Z,100861.88
2022-07-31T08:28:36.374Z,100859.94
2022-07-31T08:31:06.609Z,100863.53
2022-07-31T08:33:43.856Z,100858.84
2022-07-31T08:36:11.360Z,100863.53
2022-07-31T08:38:39.452Z,100861.59
2022-07-31T08:41:40.654Z,100864.38
2022-07-31T08:44:09.938Z,100864.38
2022-07-31T08:46:38.511Z,100861.59
2022-07-31T08:49:06.672Z,100866.31
2022-07-31T08:51:51.291Z,100862.41
2022-07-31T08:54:20.391Z,100857.72
2022-07-31T08:56:52.547Z,100864.91
2022-07-31T08:59:23.282Z,100870.69
2022-07-31T09:01:51.509Z,100864.38
2022-07-31T09:04:21.322Z,100866.00
2022-07-31T09:06:48.900Z,100870.44
2022-07-31T09:09:18.018Z,100868.75
2022-07-31T09:11:49.647Z,100870.44
2022-07-31T09:14:58.335Z,100865.72
2022-07-31T09:17:33.847Z,100866.84
2022-07-31T09:20:01.415Z,100865.19
2022-07-31T09:22:33.960Z,100863.25
2022-07-31T09:25:12.862Z,100860.78
2022-07-31T09:27:40.744Z,100862.41
2022-07-31T09:30:13.430Z,100856.91
2022-07-31T09:33:16.637Z,100861.59
2022-07-31T09:36:02.858Z,100853.88
2022-07-31T09:38:34.204Z,100854.97
2022-07-31T09:41:56.182Z,100852.19
2022-07-31T09:44:15.600Z,100846.69
2022-07-31T09:46:45.224Z,100847.53
2022-07-31T09:49:12.823Z,100850.84
2022-07-31T09:51:43.108Z,100847.22
2022-07-31T09:54:23.746Z,100853.06
2022-07-31T09:57:15.257Z,100850.00
2022-07-31T09:59:53.365Z,100844.78
2022-07-31T10:02:20.831Z,100842.84
2022-07-31T10:04:49.451Z,100844.22
2022-07-31T10:07:31.578Z,100838.72
2022-07-31T10:10:06.064Z,100838.41
2022-07-31T10:12:54.422Z,100837.59
2022-07-31T10:15:21.927Z,100833.75
2022-07-31T10:18:09.341Z,100842.84
2022-07-31T10:21:04.494Z,100839.25
2022-07-31T10:23:47.087Z,100839.81
2022-07-31T10:26:15.914Z,100832.88
2022-07-31T10:28:44.416Z,100825.72
2022-07-31T10:31:12.124Z,100826.56
2022-07-31T10:33:44.423Z,100825.47
2022-07-31T10:36:35.503Z,100824.34
2022-07-31T10:39:31.331Z,100817.75
2022-07-31T10:42:40.179Z,100821.31
2022-07-31T10:45:13.820Z,100821.59
2022-07-31T10:47:55.663Z,100822.41
2022-07-31T10:50:43.520Z,100816.88
2022-07-31T10:53:50.407Z,100806.16
2022-07-31T10:56:43.343Z,100813.31
2022-07-31T10:59:36.828Z,100814.97
2022-07-31T11:02:31.967Z,100807.53
2022-07-31T11:05:25.297Z,100802.00
2022-07-31T11:08:14.334Z,100805.84
2022-07-31T11:11:04.427Z,100806.69
2022-07-31T11:14:07.077Z,100794.81
2022-07-31T11:17:04.472Z,100795.66
2022-07-31T11:19:56.404Z,100794.00
2022-07-31T11:22:31.576Z,100794.81
2022-07-31T11:25:00.815Z,100794.00
2022-07-31T11:27:32.182Z,100794.25
2022-07-31T11:30:12.482Z,100788.75
2022-07-31T11:32:41.788Z,100795.94
2022-07-31T11:35:09.309Z,100786.84
2022-07-31T11:37:56.610Z,100790.41
2022-07-31T11:40:27.933Z,100780.19
2022-07-31T11:43:23.527Z,100785.72
2022-07-31T11:45:53.884Z,100774.69
2022-07-31T11:48:24.566Z,100772.75
2022-07-31T11:50:54.777Z,100782.97
2022-07-31T11:53:22.306Z,100782.97
2022-07-31T11:56:00.731Z,100767.53
2022-07-31T11:58:28.856Z,100768.34
2022-07-31T12:01:00.520Z,100763.91
2022-07-31T12:03:32.679Z,100767.53
2022-07-31T12:06:00.139Z,100759.25
2022-07-31T12:08:27.794Z,100750.66
2022-07-31T12:11:02.694Z,100748.22
2022-07-31T12:13:30.415Z,100750.66
2022-07-31T12:15:58.751Z,100749.03
2022-07-31T12:18:28.051Z,100747.09
2022-07-31T12:21:02.916Z,100739.94
2022-07-31T12:23:43.999Z,100737.19
2022-07-31T12:26:23.475Z,100738.00
2022-07-31T12:29:01.476Z,100731.66
2022-07-31T12:31:29.670Z,100733.28
2022-07-31T12:33:57.141Z,100726.16
2022-07-31T12:36:24.595Z,100726.97
2022-07-31T12:38:59.085Z,100722.84
2022-07-31T12:41:27.845Z,100715.09
2022-07-31T12:43:55.460Z,100713.97
2022-07-31T12:46:34.824Z,100715.94
2022-07-31T12:49:02.635Z,100721.16
2022-07-31T12:51:44.267Z,100711.22
2022-07-31T12:54:14.171Z,100697.44
2022-07-31T12:56:41.747Z,100700.19
2022-07-31T12:59:11.744Z,100704.06
2022-07-31T13:01:39.579Z,100700.19
2022-07-31T13:04:07.500Z,100697.44
2022-07-31T13:06:37.472Z,100695.78
2022-07-31T13:09:05.158Z,100690.28
2022-07-31T13:11:46.515Z,100688.34
2022-07-31T13:14:16.902Z,100684.44
2022-07-31T13:16:48.126Z,100680.06
2022-07-31T13:19:15.720Z,100678.94
2022-07-31T13:21:49.098Z,100676.19
2022-07-31T13:24:21.672Z,100678.13
2022-07-31T13:26:50.016Z,100681.69
2022-07-31T13:29:17.529Z,100669.03
2022-07-31T13:31:44.980Z,100666.25
2022-07-31T13:34:15.267Z,100669.84
2022-07-31T13:36:42.771Z,100670.41
2022-07-31T13:39:10.751Z,100658.81
2022-07-31T13:41:39.533Z,100654.41
2022-07-31T13:44:07.644Z,100660.75
2022-07-31T13:46:35.227Z,100654.41
2022-07-31T13:49:08.086Z,100659.63
2022-07-31T13:51:36.466Z,100652.19
2022-07-31T13:54:04.017Z,100646.69
2022-07-31T13:56:39.449Z,100645.56
2022-07-31T13:59:13.757Z,100647.78
2022-07-31T14:02:03.702Z,100645.56
2022-07-31T14:04:32.418Z,100637.28
2022-07-31T14:07:01.460Z,100642.78
2022-07-31T14:09:34.715Z,100636.72
2022-07-31T14:12:04.617Z,100637.56
2022-07-31T14:14:33.171Z,100632.88
2022-07-31T14:17:03.757Z,100638.69
2022-07-31T14:19:44.096Z,100634.78
2022-07-31T14:22:14.554Z,100624.06
2022-07-31T14:24:43.286Z,100625.97
2022-07-31T14:27:18.615Z,100635.91
2022-07-31T14:29:46.717Z,100630.13
2022-07-31T14:32:14.171Z,100629.28
2022-07-31T14:34:41.600Z,100625.69
2022-07-31T14:37:09.105Z,100624.88
2022-07-31T14:39:36.559Z,100621.00
2022-07-31T14:42:13.305Z,100621.84
2022-07-31T14:44:42.108Z,100625.69
2022-07-31T14:47:10.924Z,100616.31
2022-07-31T14:50:09.351Z,100614.38
2022-07-31T14:52:29.458Z,100617.97
2022-07-31T14:54:58.464Z,100618.25
2022-07-31T14:57:26.646Z,100608.06
2022-07-31T14:59:54.544Z,100613.56
2022-07-31T15:02:22.888Z,100620.19
2022-07-31T15:04:51.677Z,100614.38
2022-07-31T15:07:38.433Z,100610.81
2022-07-31T15:10:08.261Z,100611.63
2022-07-31T15:12:35.713Z,100616.03
2022-07-31T15:15:03.196Z,100612.72
2022-07-31T15:17:30.726Z,100608.06
2022-07-31T15:19:58.249Z,100604.44
2022-07-31T15:22:28.542Z,100609.97
2022-07-31T15:24:56.016Z,100599.78
2022-07-31T15:27:25.069Z,100603.63
2022-07-31T15:30:00.519Z,100607.22
2022-07-31T15:32:34.895Z,100608.06
2022-07-31T15:35:02.475Z,100602.53
2022-07-31T15:37:30.341Z,100607.22
2022-07-31T15:40:02.961Z,100606.94
2022-07-31T15:42:32.164Z,100599.78
2022-07-31T15:44:59.620Z,100598.94
2022-07-31T15:47:27.094Z,100605.00
2022-07-31T15:49:54.501Z,100597.56
2022-07-31T15:52:22.069Z,100597.84
2022-07-31T15:54:52.104Z,100598.66
2022-07-31T15:57:21.186Z,100596.16
2022-07-31T15:59:54.189Z,100593.13
2022-07-31T16:02:22.293Z,100592.03
2022-07-31T16:04:53.108Z,100590.38
2022-07-31T16:08:29.712Z,100584.84
2022-07-31T16:10:15.298Z,100586.53
2022-07-31T16:12:47.625Z,100580.47
2022-07-31T16:15:16.137Z,100583.22
2022-07-31T16:17:44.038Z,100577.72
2022-07-31T16:20:20.727Z,100574.09
2022-07-31T16:22:57.799Z,100571.06
2022-07-31T16:25:25.890Z,100571.34
2022-07-31T16:27:53.369Z,100563.91
2022-07-31T16:30:21.076Z,100558.38
2022-07-31T16:32:48.791Z,100557.53
2022-07-31T16:35:16.243Z,100565.00
2022-07-31T16:37:52.059Z,100565.00
2022-07-31T16:40:30.342Z,100555.63
2022-07-31T16:43:01.370Z,100553.97
2022-07-31T16:45:29.663Z,100565.00
2022-07-31T16:48:00.013Z,100563.91
2022-07-31T16:50:27.650Z,100567.75
2022-07-31T16:52:55.435Z,100561.97
2022-07-31T16:56:01.118Z,100569.44
2022-07-31T16:58:12.243Z,100563.91
2022-07-31T17:00:40.301Z,100557.53
2022-07-31T17:03:59.204Z,100561.97
2022-07-31T17:05:55.591Z,100562.50
2022-07-31T17:08:23.040Z,100561.16
2022-07-31T17:10:54.357Z,100555.31
2022-07-31T17:13:22.788Z,100561.16
2022-07-31T17:15:50.390Z,100563.91
2022-07-31T17:18:17.956Z,100570.25
2022-07-31T17:20:47.093Z,100567.50
2022-07-31T17:23:14.747Z,100563.59
2022-07-31T17:25:43.317Z,100564.72
2022-07-31T17:28:14.998Z,100562.78
2022-07-31T17:30:44.957Z,100570.25
2022-07-31T17:33:12.493Z,100565.53
2022-07-31T17:35:40.118Z,100571.06
2022-07-31T17:38:07.719Z,100576.84
2022-07-31T17:40:44.061Z,100572.19
2022-07-31T17:43:11.827Z,100573.81
2022-07-31T17:45:59.377Z,100578.25
2022-07-31T17:48:28.919Z,100576.31
2022-07-31T17:50:56.292Z,100580.16
2022-07-31T17:53:24.089Z,100585.69
2022-07-31T17:56:13.010Z,100587.34
2022-07-31T17:58:42.933Z,100588.44
2022-07-31T18:01:10.451Z,100587.34
2022-07-31T18:03:38.813Z,100597.56
2022-07-31T18:06:06.270Z,100592.31
2022-07-31T18:08:33.686Z,100598.66
2022-07-31T18:11:01.231Z,100596.72
2022-07-31T18:13:28.805Z,100602.22
2022-07-31T18:15:59.181Z,100600.31
2022-07-31T18:18:26.563Z,100594.81
2022-07-31T18:20:54.006Z,100597.56
2022-07-31T18:23:23.038Z,100599.47
2022-07-31T18:25:51.348Z,100598.38
2022-07-31T18:28:18.801Z,100601.13
2022-07-31T18:30:46.210Z,100609.69
2022-07-31T18:33:14.309Z,100600.31
2022-07-31T18:35:42.665Z,100606.66
2022-07-31T18:38:10.340Z,100603.91
2022-07-31T18:40:37.856Z,100606.94
2022-07-31T18:43:06.192Z,100603.63
2022-07-31T18:45:33.667Z,100610.22
2022-07-31T18:48:01.973Z,100608.28
2022-07-31T18:50:59.211Z,100610.22
2022-07-31T18:53:17.110Z,100611.91
2022-07-31T18:55:47.261Z,100611.03
2022-07-31T18:58:14.897Z,100624.03
2022-07-31T19:00:42.577Z,100620.19
2022-07-31T19:03:10.011Z,100626.50
2022-07-31T19:05:37.472Z,100624.03
2022-07-31T19:08:05.632Z,100624.84
2022-07-31T19:10:33.055Z,100628.44
2022-07-31T19:13:00.920Z,100625.69
2022-07-31T19:15:28.329Z,100629.28
2022-07-31T19:17:58.637Z,100634.78
2022-07-31T19:20:44.524Z,100636.72
2022-07-31T19:23:17.207Z,100640.31
2022-07-31T19:25:53.958Z,100654.09
2022-07-31T19:28:31.633Z,100654.09
2022-07-31T19:30:59.271Z,100659.91
2022-07-31T19:33:29.450Z,100665.13
2022-07-31T19:36:01.758Z,100667.34
2022-07-31T19:38:30.460Z,100671.75
2022-07-31T19:40:57.970Z,100673.69
2022-07-31T19:43:25.490Z,100672.88
2022-07-31T19:46:10.225Z,100684.72
2022-07-31T19:48:41.174Z,100685.53
2022-07-31T19:51:09.581Z,100688.31
2022-07-31T19:53:37.505Z,100687.47
2022-07-31T19:56:08.835Z,100675.63
2022-07-31T19:58:36.900Z,100687.47
2022-07-31T20:01:05.069Z,100683.09
2022-07-31T20:03:32.896Z,100686.94
2022-07-31T20:06:01.122Z,100691.38
2022-07-31T20:08:32.868Z,100690.53
2022-07-31T20:11:03.685Z,100693.28
2022-07-31T20:13:32.687Z,100697.97
2022-07-31T20:16:00.272Z,100697.97
2022-07-31T20:18:28.769Z,100694.41
2022-07-31T20:20:58.013Z,100699.09
2022-07-31T20:23:26.278Z,100699.09
2022-07-31T20:25:53.754Z,100696.34
2022-07-31T20:28:21.268Z,100689.97
2022-07-31T20:30:48.883Z,100700.19
2022-07-31T20:33:16.570Z,100699.38
2022-07-31T20:35:48.824Z,100702.13
2022-07-31T20:38:18.813Z,100708.47
2022-07-31T20:40:53.085Z,100704.88
2022-07-31T20:43:23.528Z,100701.31
2022-07-31T20:45:51.442Z,100707.09
2022-07-31T20:48:19.035Z,100710.69
2022-07-31T20:50:49.034Z,100711.50
2022-07-31T20:53:17.268Z,100708.75
2022-07-31T20:55:47.463Z,100716.19
2022-07-31T20:58:15.077Z,100714.25
2022-07-31T21:00:42.628Z,100712.63
2022-07-31T21:03:10.052Z,100711.81
2022-07-31T21:05:37.474Z,100716.47
2022-07-31T21:08:05.201Z,100716.19
2022-07-31T21:10:32.684Z,100717.31
2022-07-31T21:13:00.086Z,100723.94
2022-07-31T21:15:42.814Z,100720.34
2022-07-31T21:18:16.876Z,100726.41
2022-07-31T21:20:50.927Z,100721.72
2022-07-31T21:23:24.161Z,100718.41
2022-07-31T21:25:52.582Z,100722.84
2022-07-31T21:28:20.444Z,100711.25
2022-07-31T21:30:48.140Z,100719.22
2022-07-31T21:33:15.791Z,100722.84
2022-07-31T21:35:44.057Z,100715.66
2022-07-31T21:38:12.406Z,100718.41
2022-07-31T21:40:40.311Z,100718.69
2022-07-31T21:43:08.659Z,100725.88
2022-07-31T21:45:50.779Z,100725.88
2022-07-31T21:48:25.185Z,100725.88
2022-07-31T21:50:53.494Z,100726.69
2022-07-31T21:53:21.002Z,100729.72
2022-07-31T21:55:48.529Z,100726.69
2022-07-31T21:58:16.502Z,100726.97
2022-07-31T22:00:44.381Z,100729.72
2022-07-31T22:03:11.938Z,100726.13
2022-07-31T22:05:57.719Z,100726.69
2022-07-31T22:08:25.167Z,100726.13
2022-07-31T22:10:52.614Z,100727.25
2022-07-31T22:13:20.259Z,100721.75
2022-07-31T22:15:58.630Z,100727.53
2022-07-31T22:18:28.874Z,100730.84
2022-07-31T22:20:57.291Z,100736.34
2022-07-31T22:23:26.685Z,100732.78
2022-07-31T22:25:54.419Z,100733.59
2022-07-31T22:28:22.300Z,100731.66
2022-07-31T22:30:50.034Z,100731.66
2022-07-31T22:33:17.682Z,100732.78
2022-07-31T22:35:58.312Z,100733.06
2022-07-31T22:38:28.727Z,100736.63
2022-07-31T22:40:56.589Z,100741.88
2022-07-31T22:44:12.798Z,100739.13
2022-07-31T22:46:11.920Z,100745.72
2022-07-31T22:48:40.798Z,100742.97
2022-07-31T22:51:09.055Z,100742.16
2022-07-31T22:53:38.303Z,100744.09
2022-07-31T22:56:05.763Z,100753.19
2022-07-31T22:58:34.055Z,100747.66
2022-07-31T23:01:01.457Z,100745.19
2022-07-31T23:03:29.827Z,100755.13
2022-07-31T23:06:29.353Z,100746.84
2022-07-31T23:08:44.724Z,100749.59
2022-07-31T23:11:12.718Z,100754.84
2022-07-31T23:13:40.266Z,100747.66
2022-07-31T23:16:10.727Z,100744.91
2022-07-31T23:18:38.154Z,100743.81
2022-07-31T23:21:08.478Z,100749.34
2022-07-31T23:23:37.229Z,100741.06
2022-07-31T23:26:04.794Z,100742.16
2022-07-31T23:28:32.246Z,100752.38
2022-07-31T23:30:59.708Z,100746.00
2022-07-31T23:33:27.124Z,100750.69
2022-07-31T23:35:57.531Z,100744.09
2022-07-31T23:38:24.965Z,100749.59
2022-07-31T23:40:56.206Z,100751.50
2022-07-31T23:43:24.011Z,100753.19
2022-07-31T23:45:51.723Z,100755.38
2022-07-31T23:48:19.718Z,100754.28
2022-07-31T23:50:51.225Z,100750.94
2022-07-31T23:53:18.747Z,100749.88
2022-07-31T23:55:46.119Z,100740.47
2022-07-31T23:58:13.738Z,100738.84
